sensor_id;sensor_type;location;lat;lon;timestamp;P1;durP1;ratioP1;P2;durP2;ratioP2
54452;SDS011;40363;52.270;10.546;2023-06-10T00:01:06;5.32;;;2.55;;
54452;SDS011;40363;52.270;10.546;2023-06-10T00:03:32;4.40;;;2.58;;
54452;SDS011;40363;52.270;10.546;2023-06-10T00:05:59;6.25;;;2.25;;
54452;SDS011;40363;52.270;10.546;2023-06-10T00:08:25;5.75;;;2.45;;
54452;SDS011;40363;52.270;10.546;2023-06-10T00:10:52;3.85;;;2.40;;
54452;SDS011;40363;52.270;10.546;2023-06-10T00:13:19;3.78;;;2.25;;
54452;SDS011;40363;52.270;10.546;2023-06-10T00:15:45;5.18;;;2.17;;
54452;SDS011;40363;52.270;10.546;2023-06-10T00:18:13;6.97;;;2.92;;
54452;SDS011;40363;52.270;10.546;2023-06-10T00:20:42;3.60;;;2.40;;
54452;SDS011;40363;52.270;10.546;2023-06-10T00:23:09;5.60;;;3.00;;
54452;SDS011;40363;52.270;10.546;2023-06-10T00:25:36;5.43;;;3.08;;
54452;SDS011;40363;52.270;10.546;2023-06-10T00:28:03;8.63;;;3.20;;
54452;SDS011;40363;52.270;10.546;2023-06-10T00:30:29;8.00;;;3.47;;
54452;SDS011;40363;52.270;10.546;2023-06-10T00:32:56;6.85;;;2.67;;
54452;SDS011;40363;52.270;10.546;2023-06-10T00:35:24;4.95;;;2.65;;
54452;SDS011;40363;52.270;10.546;2023-06-10T00:37:50;5.43;;;2.45;;
54452;SDS011;40363;52.270;10.546;2023-06-10T00:40:17;5.93;;;2.50;;
54452;SDS011;40363;52.270;10.546;2023-06-10T00:42:43;5.88;;;3.20;;
54452;SDS011;40363;52.270;10.546;2023-06-10T00:45:10;10.57;;;3.42;;
54452;SDS011;40363;52.270;10.546;2023-06-10T00:47:36;9.25;;;2.85;;
54452;SDS011;40363;52.270;10.546;2023-06-10T00:50:03;7.03;;;2.88;;
54452;SDS011;40363;52.270;10.546;2023-06-10T00:52:32;5.70;;;2.95;;
54452;SDS011;40363;52.270;10.546;2023-06-10T00:55:01;6.88;;;3.13;;
54452;SDS011;40363;52.270;10.546;2023-06-10T00:57:28;8.55;;;3.28;;
54452;SDS011;40363;52.270;10.546;2023-06-10T00:59:54;4.65;;;3.15;;
54452;SDS011;40363;52.270;10.546;2023-06-10T01:02:21;5.07;;;3.00;;
54452;SDS011;40363;52.270;10.546;2023-06-10T01:04:48;5.28;;;2.88;;
54452;SDS011;40363;52.270;10.546;2023-06-10T01:07:17;6.78;;;3.10;;
54452;SDS011;40363;52.270;10.546;2023-06-10T01:09:53;10.68;;;4.22;;
54452;SDS011;40363;52.270;10.546;2023-06-10T01:12:24;4.90;;;3.10;;
54452;SDS011;40363;52.270;10.546;2023-06-10T01:14:57;8.52;;;3.47;;
54452;SDS011;40363;52.270;10.546;2023-06-10T01:17:25;8.70;;;3.40;;
54452;SDS011;40363;52.270;10.546;2023-06-10T01:19:53;3.88;;;3.22;;
54452;SDS011;40363;52.270;10.546;2023-06-10T01:22:23;5.82;;;2.97;;
54452;SDS011;40363;52.270;10.546;2023-06-10T01:24:51;7.40;;;3.42;;
54452;SDS011;40363;52.270;10.546;2023-06-10T01:27:19;5.88;;;3.70;;
54452;SDS011;40363;52.270;10.546;2023-06-10T01:29:50;6.32;;;3.70;;
54452;SDS011;40363;52.270;10.546;2023-06-10T01:32:23;5.88;;;3.78;;
54452;SDS011;40363;52.270;10.546;2023-06-10T01:34:55;8.07;;;3.35;;
54452;SDS011;40363;52.270;10.546;2023-06-10T01:37:23;7.07;;;3.45;;
54452;SDS011;40363;52.270;10.546;2023-06-10T01:39:52;5.43;;;3.28;;
54452;SDS011;40363;52.270;10.546;2023-06-10T01:42:23;5.78;;;4.03;;
54452;SDS011;40363;52.270;10.546;2023-06-10T01:44:51;8.65;;;4.10;;
54452;SDS011;40363;52.270;10.546;2023-06-10T01:47:17;7.05;;;3.70;;
54452;SDS011;40363;52.270;10.546;2023-06-10T01:49:44;7.90;;;3.70;;
54452;SDS011;40363;52.270;10.546;2023-06-10T01:52:11;7.45;;;3.67;;
54452;SDS011;40363;52.270;10.546;2023-06-10T01:54:39;8.80;;;3.72;;
54452;SDS011;40363;52.270;10.546;2023-06-10T01:57:06;14.23;;;3.78;;
54452;SDS011;40363;52.270;10.546;2023-06-10T01:59:32;9.52;;;3.97;;
54452;SDS011;40363;52.270;10.546;2023-06-10T02:01:59;7.53;;;3.92;;
54452;SDS011;40363;52.270;10.546;2023-06-10T02:04:25;8.70;;;3.80;;
54452;SDS011;40363;52.270;10.546;2023-06-10T02:06:52;8.35;;;4.45;;
54452;SDS011;40363;52.270;10.546;2023-06-10T02:09:18;5.95;;;3.83;;
54452;SDS011;40363;52.270;10.546;2023-06-10T02:11:46;9.80;;;4.28;;
54452;SDS011;40363;52.270;10.546;2023-06-10T02:14:13;7.38;;;4.03;;
54452;SDS011;40363;52.270;10.546;2023-06-10T02:16:39;6.40;;;4.22;;
54452;SDS011;40363;52.270;10.546;2023-06-10T02:19:06;8.57;;;3.85;;
54452;SDS011;40363;52.270;10.546;2023-06-10T02:21:33;8.68;;;4.38;;
54452;SDS011;40363;52.270;10.546;2023-06-10T02:24:00;7.65;;;4.10;;
54452;SDS011;40363;52.270;10.546;2023-06-10T02:26:27;8.32;;;3.90;;
54452;SDS011;40363;52.270;10.546;2023-06-10T02:28:54;9.15;;;4.82;;
54452;SDS011;40363;52.270;10.546;2023-06-10T02:31:21;9.80;;;3.75;;
54452;SDS011;40363;52.270;10.546;2023-06-10T02:33:48;9.52;;;4.57;;
54452;SDS011;40363;52.270;10.546;2023-06-10T02:36:15;6.78;;;4.05;;
54452;SDS011;40363;52.270;10.546;2023-06-10T02:38:41;8.25;;;4.15;;
54452;SDS011;40363;52.270;10.546;2023-06-10T02:41:08;9.15;;;4.05;;
54452;SDS011;40363;52.270;10.546;2023-06-10T02:43:34;10.13;;;4.20;;
54452;SDS011;40363;52.270;10.546;2023-06-10T02:46:02;8.63;;;3.90;;
54452;SDS011;40363;52.270;10.546;2023-06-10T02:48:29;7.53;;;4.22;;
54452;SDS011;40363;52.270;10.546;2023-06-10T02:50:56;10.10;;;3.65;;
54452;SDS011;40363;52.270;10.546;2023-06-10T02:53:22;8.45;;;4.18;;
54452;SDS011;40363;52.270;10.546;2023-06-10T02:55:49;12.43;;;5.20;;
54452;SDS011;40363;52.270;10.546;2023-06-10T02:58:15;9.32;;;3.83;;
54452;SDS011;40363;52.270;10.546;2023-06-10T03:00:42;7.10;;;4.38;;
54452;SDS011;40363;52.270;10.546;2023-06-10T03:03:11;6.47;;;4.60;;
54452;SDS011;40363;52.270;10.546;2023-06-10T03:05:37;8.20;;;4.35;;
54452;SDS011;40363;52.270;10.546;2023-06-10T03:08:05;7.43;;;4.38;;
54452;SDS011;40363;52.270;10.546;2023-06-10T03:10:31;14.52;;;5.53;;
54452;SDS011;40363;52.270;10.546;2023-06-10T03:12:58;8.40;;;5.65;;
54452;SDS011;40363;52.270;10.546;2023-06-10T03:15:24;12.35;;;6.15;;
54452;SDS011;40363;52.270;10.546;2023-06-10T03:17:53;10.38;;;6.55;;
54452;SDS011;40363;52.270;10.546;2023-06-10T03:20:22;12.55;;;7.35;;
54452;SDS011;40363;52.270;10.546;2023-06-10T03:22:48;8.98;;;5.28;;
54452;SDS011;40363;52.270;10.546;2023-06-10T03:25:15;8.95;;;5.65;;
54452;SDS011;40363;52.270;10.546;2023-06-10T03:27:42;7.47;;;4.47;;
54452;SDS011;40363;52.270;10.546;2023-06-10T03:30:09;13.77;;;5.43;;
54452;SDS011;40363;52.270;10.546;2023-06-10T03:32:36;8.27;;;4.28;;
54452;SDS011;40363;52.270;10.546;2023-06-10T03:35:03;9.23;;;4.72;;
54452;SDS011;40363;52.270;10.546;2023-06-10T03:37:33;8.13;;;4.60;;
54452;SDS011;40363;52.270;10.546;2023-06-10T03:39:59;7.90;;;3.95;;
54452;SDS011;40363;52.270;10.546;2023-06-10T03:42:26;11.98;;;4.65;;
54452;SDS011;40363;52.270;10.546;2023-06-10T03:44:52;9.63;;;4.82;;
54452;SDS011;40363;52.270;10.546;2023-06-10T03:47:20;7.70;;;4.60;;
54452;SDS011;40363;52.270;10.546;2023-06-10T03:49:46;12.05;;;5.13;;
54452;SDS011;40363;52.270;10.546;2023-06-10T03:52:13;7.53;;;4.38;;
54452;SDS011;40363;52.270;10.546;2023-06-10T03:54:41;7.72;;;4.43;;
54452;SDS011;40363;52.270;10.546;2023-06-10T03:57:07;7.82;;;4.47;;
54452;SDS011;40363;52.270;10.546;2023-06-10T03:59:34;12.20;;;6.22;;
54452;SDS011;40363;52.270;10.546;2023-06-10T04:02:01;9.82;;;4.47;;
54452;SDS011;40363;52.270;10.546;2023-06-10T04:04:29;10.25;;;4.97;;
54452;SDS011;40363;52.270;10.546;2023-06-10T04:06:56;10.98;;;4.82;;
54452;SDS011;40363;52.270;10.546;2023-06-10T04:09:23;9.57;;;4.85;;
54452;SDS011;40363;52.270;10.546;2023-06-10T04:11:51;8.75;;;5.10;;
54452;SDS011;40363;52.270;10.546;2023-06-10T04:14:17;6.38;;;4.57;;
54452;SDS011;40363;52.270;10.546;2023-06-10T04:16:44;12.77;;;4.38;;
54452;SDS011;40363;52.270;10.546;2023-06-10T04:19:10;9.82;;;5.13;;
54452;SDS011;40363;52.270;10.546;2023-06-10T04:21:37;13.65;;;4.57;;
54452;SDS011;40363;52.270;10.546;2023-06-10T04:24:03;8.38;;;4.53;;
54452;SDS011;40363;52.270;10.546;2023-06-10T04:26:30;8.82;;;4.97;;
54452;SDS011;40363;52.270;10.546;2023-06-10T04:28:58;11.82;;;4.75;;
54452;SDS011;40363;52.270;10.546;2023-06-10T04:31:25;9.80;;;4.28;;
54452;SDS011;40363;52.270;10.546;2023-06-10T04:33:51;7.68;;;4.05;;
54452;SDS011;40363;52.270;10.546;2023-06-10T04:36:18;8.43;;;4.93;;
54452;SDS011;40363;52.270;10.546;2023-06-10T04:38:45;7.75;;;4.80;;
54452;SDS011;40363;52.270;10.546;2023-06-10T04:41:11;8.10;;;5.32;;
54452;SDS011;40363;52.270;10.546;2023-06-10T04:43:38;12.95;;;4.63;;
54452;SDS011;40363;52.270;10.546;2023-06-10T04:46:06;8.52;;;5.18;;
54452;SDS011;40363;52.270;10.546;2023-06-10T04:48:33;7.78;;;4.20;;
54452;SDS011;40363;52.270;10.546;2023-06-10T04:51:01;8.75;;;4.22;;
54452;SDS011;40363;52.270;10.546;2023-06-10T04:53:27;11.63;;;5.10;;
54452;SDS011;40363;52.270;10.546;2023-06-10T04:55:54;6.97;;;4.15;;
54452;SDS011;40363;52.270;10.546;2023-06-10T04:58:22;8.63;;;4.40;;
54452;SDS011;40363;52.270;10.546;2023-06-10T05:00:49;9.55;;;4.80;;
54452;SDS011;40363;52.270;10.546;2023-06-10T05:03:17;7.20;;;4.55;;
54452;SDS011;40363;52.270;10.546;2023-06-10T05:05:43;10.30;;;4.05;;
54452;SDS011;40363;52.270;10.546;2023-06-10T05:08:10;7.93;;;4.07;;
54452;SDS011;40363;52.270;10.546;2023-06-10T05:10:36;9.75;;;4.35;;
54452;SDS011;40363;52.270;10.546;2023-06-10T05:13:03;8.93;;;4.18;;
54452;SDS011;40363;52.270;10.546;2023-06-10T05:15:30;7.63;;;3.92;;
54452;SDS011;40363;52.270;10.546;2023-06-10T05:17:56;7.20;;;3.78;;
54452;SDS011;40363;52.270;10.546;2023-06-10T05:20:25;9.13;;;4.90;;
54452;SDS011;40363;52.270;10.546;2023-06-10T05:22:53;10.60;;;4.43;;
54452;SDS011;40363;52.270;10.546;2023-06-10T05:25:20;9.13;;;4.30;;
54452;SDS011;40363;52.270;10.546;2023-06-10T05:27:46;7.32;;;4.65;;
54452;SDS011;40363;52.270;10.546;2023-06-10T05:30:13;8.35;;;4.60;;
54452;SDS011;40363;52.270;10.546;2023-06-10T05:32:40;7.07;;;3.80;;
54452;SDS011;40363;52.270;10.546;2023-06-10T05:35:06;6.57;;;4.10;;
54452;SDS011;40363;52.270;10.546;2023-06-10T05:37:34;9.93;;;4.05;;
54452;SDS011;40363;52.270;10.546;2023-06-10T05:40:01;10.05;;;4.13;;
54452;SDS011;40363;52.270;10.546;2023-06-10T05:42:29;10.90;;;4.80;;
54452;SDS011;40363;52.270;10.546;2023-06-10T05:44:56;11.15;;;4.35;;
54452;SDS011;40363;52.270;10.546;2023-06-10T05:47:22;6.10;;;4.15;;
54452;SDS011;40363;52.270;10.546;2023-06-10T05:49:49;6.72;;;3.85;;
54452;SDS011;40363;52.270;10.546;2023-06-10T05:52:16;12.30;;;4.93;;
54452;SDS011;40363;52.270;10.546;2023-06-10T05:54:44;12.05;;;4.40;;
54452;SDS011;40363;52.270;10.546;2023-06-10T05:57:11;14.77;;;4.57;;
54452;SDS011;40363;52.270;10.546;2023-06-10T05:59:37;7.47;;;4.20;;
54452;SDS011;40363;52.270;10.546;2023-06-10T06:02:04;11.93;;;5.63;;
54452;SDS011;40363;52.270;10.546;2023-06-10T06:04:31;11.18;;;4.53;;
54452;SDS011;40363;52.270;10.546;2023-06-10T06:06:58;8.30;;;4.32;;
54452;SDS011;40363;52.270;10.546;2023-06-10T06:09:24;10.35;;;4.32;;
54452;SDS011;40363;52.270;10.546;2023-06-10T06:11:52;7.38;;;4.40;;
54452;SDS011;40363;52.270;10.546;2023-06-10T06:14:19;7.78;;;5.32;;
54452;SDS011;40363;52.270;10.546;2023-06-10T06:16:45;7.97;;;3.80;;
54452;SDS011;40363;52.270;10.546;2023-06-10T06:19:12;8.63;;;3.28;;
54452;SDS011;40363;52.270;10.546;2023-06-10T06:21:38;9.90;;;4.18;;
54452;SDS011;40363;52.270;10.546;2023-06-10T06:24:05;6.40;;;3.53;;
54452;SDS011;40363;52.270;10.546;2023-06-10T06:26:32;7.70;;;4.30;;
54452;SDS011;40363;52.270;10.546;2023-06-10T06:29:00;10.10;;;4.30;;
54452;SDS011;40363;52.270;10.546;2023-06-10T06:31:27;8.85;;;4.35;;
54452;SDS011;40363;52.270;10.546;2023-06-10T06:33:53;8.73;;;4.30;;
54452;SDS011;40363;52.270;10.546;2023-06-10T06:36:20;9.02;;;3.67;;
54452;SDS011;40363;52.270;10.546;2023-06-10T06:38:47;8.80;;;3.85;;
54452;SDS011;40363;52.270;10.546;2023-06-10T06:41:13;7.20;;;3.88;;
54452;SDS011;40363;52.270;10.546;2023-06-10T06:43:40;9.23;;;4.82;;
54452;SDS011;40363;52.270;10.546;2023-06-10T06:46:09;8.18;;;4.75;;
54452;SDS011;40363;52.270;10.546;2023-06-10T06:48:36;9.43;;;4.30;;
54452;SDS011;40363;52.270;10.546;2023-06-10T06:51:02;7.07;;;3.58;;
54452;SDS011;40363;52.270;10.546;2023-06-10T06:53:29;7.38;;;4.63;;
54452;SDS011;40363;52.270;10.546;2023-06-10T06:55:55;7.93;;;4.78;;
54452;SDS011;40363;52.270;10.546;2023-06-10T06:58:22;8.10;;;4.25;;
54452;SDS011;40363;52.270;10.546;2023-06-10T07:00:48;10.82;;;4.28;;
54452;SDS011;40363;52.270;10.546;2023-06-10T07:03:16;8.27;;;4.05;;
54452;SDS011;40363;52.270;10.546;2023-06-10T07:05:43;11.75;;;3.65;;
54452;SDS011;40363;52.270;10.546;2023-06-10T07:08:10;6.10;;;3.58;;
54452;SDS011;40363;52.270;10.546;2023-06-10T07:10:37;7.00;;;3.70;;
54452;SDS011;40363;52.270;10.546;2023-06-10T07:13:04;8.60;;;3.97;;
54452;SDS011;40363;52.270;10.546;2023-06-10T07:15:30;6.30;;;3.55;;
54452;SDS011;40363;52.270;10.546;2023-06-10T07:17:57;9.70;;;3.80;;
54452;SDS011;40363;52.270;10.546;2023-06-10T07:20:25;6.38;;;3.90;;
54452;SDS011;40363;52.270;10.546;2023-06-10T07:22:52;8.10;;;3.92;;
54452;SDS011;40363;52.270;10.546;2023-06-10T07:25:18;8.55;;;3.80;;
54452;SDS011;40363;52.270;10.546;2023-06-10T07:27:45;12.00;;;4.57;;
54452;SDS011;40363;52.270;10.546;2023-06-10T07:30:12;7.55;;;3.38;;
54452;SDS011;40363;52.270;10.546;2023-06-10T07:32:39;7.53;;;3.92;;
54452;SDS011;40363;52.270;10.546;2023-06-10T07:35:07;9.38;;;4.32;;
54452;SDS011;40363;52.270;10.546;2023-06-10T07:37:37;6.32;;;4.00;;
54452;SDS011;40363;52.270;10.546;2023-06-10T07:40:04;12.35;;;4.20;;
54452;SDS011;40363;52.270;10.546;2023-06-10T07:42:31;6.70;;;4.10;;
54452;SDS011;40363;52.270;10.546;2023-06-10T07:44:58;7.25;;;4.15;;
54452;SDS011;40363;52.270;10.546;2023-06-10T07:47:24;8.20;;;4.47;;
54452;SDS011;40363;52.270;10.546;2023-06-10T07:49:51;7.47;;;4.20;;
54452;SDS011;40363;52.270;10.546;2023-06-10T07:52:18;7.50;;;4.35;;
54452;SDS011;40363;52.270;10.546;2023-06-10T07:54:49;7.65;;;3.88;;
54452;SDS011;40363;52.270;10.546;2023-06-10T07:57:16;8.45;;;4.13;;
54452;SDS011;40363;52.270;10.546;2023-06-10T07:59:42;8.38;;;4.13;;
54452;SDS011;40363;52.270;10.546;2023-06-10T08:02:10;7.05;;;4.13;;
54452;SDS011;40363;52.270;10.546;2023-06-10T08:04:36;6.55;;;3.67;;
54452;SDS011;40363;52.270;10.546;2023-06-10T08:07:03;7.40;;;3.70;;
54452;SDS011;40363;52.270;10.546;2023-06-10T08:09:30;6.72;;;4.00;;
54452;SDS011;40363;52.270;10.546;2023-06-10T08:11:58;8.25;;;4.38;;
54452;SDS011;40363;52.270;10.546;2023-06-10T08:14:25;7.65;;;3.90;;
54452;SDS011;40363;52.270;10.546;2023-06-10T08:16:51;11.32;;;4.35;;
54452;SDS011;40363;52.270;10.546;2023-06-10T08:19:18;7.90;;;4.70;;
54452;SDS011;40363;52.270;10.546;2023-06-10T08:21:45;11.70;;;4.22;;
54452;SDS011;40363;52.270;10.546;2023-06-10T08:24:11;5.78;;;4.15;;
54452;SDS011;40363;52.270;10.546;2023-06-10T08:26:40;9.80;;;3.92;;
54452;SDS011;40363;52.270;10.546;2023-06-10T08:29:08;7.18;;;4.13;;
54452;SDS011;40363;52.270;10.546;2023-06-10T08:31:34;8.55;;;3.97;;
54452;SDS011;40363;52.270;10.546;2023-06-10T08:34:01;8.05;;;4.00;;
54452;SDS011;40363;52.270;10.546;2023-06-10T08:36:28;11.93;;;4.35;;
54452;SDS011;40363;52.270;10.546;2023-06-10T08:38:54;9.20;;;4.18;;
54452;SDS011;40363;52.270;10.546;2023-06-10T08:41:21;7.72;;;4.07;;
54452;SDS011;40363;52.270;10.546;2023-06-10T08:43:53;8.52;;;3.92;;
54452;SDS011;40363;52.270;10.546;2023-06-10T08:46:31;8.80;;;3.95;;
54452;SDS011;40363;52.270;10.546;2023-06-10T08:48:58;10.93;;;4.25;;
54452;SDS011;40363;52.270;10.546;2023-06-10T08:51:29;7.07;;;3.92;;
54452;SDS011;40363;52.270;10.546;2023-06-10T08:54:01;6.40;;;4.00;;
54452;SDS011;40363;52.270;10.546;2023-06-10T08:56:30;9.50;;;3.85;;
54452;SDS011;40363;52.270;10.546;2023-06-10T08:59:05;11.20;;;4.40;;
54452;SDS011;40363;52.270;10.546;2023-06-10T09:01:33;9.05;;;4.55;;
54452;SDS011;40363;52.270;10.546;2023-06-10T09:04:02;7.43;;;4.53;;
54452;SDS011;40363;52.270;10.546;2023-06-10T09:06:29;9.25;;;4.97;;
54452;SDS011;40363;52.270;10.546;2023-06-10T09:08:58;8.43;;;4.50;;
54452;SDS011;40363;52.270;10.546;2023-06-10T09:11:25;6.38;;;4.68;;
54452;SDS011;40363;52.270;10.546;2023-06-10T09:13:52;8.90;;;4.80;;
54452;SDS011;40363;52.270;10.546;2023-06-10T09:16:19;7.68;;;4.40;;
54452;SDS011;40363;52.270;10.546;2023-06-10T09:18:47;12.40;;;5.35;;
54452;SDS011;40363;52.270;10.546;2023-06-10T09:21:19;6.32;;;4.40;;
54452;SDS011;40363;52.270;10.546;2023-06-10T09:23:46;8.10;;;5.13;;
54452;SDS011;40363;52.270;10.546;2023-06-10T09:26:14;9.52;;;4.90;;
54452;SDS011;40363;52.270;10.546;2023-06-10T09:28:41;7.47;;;4.65;;
54452;SDS011;40363;52.270;10.546;2023-06-10T09:31:09;9.20;;;4.35;;
54452;SDS011;40363;52.270;10.546;2023-06-10T09:33:39;8.80;;;4.32;;
54452;SDS011;40363;52.270;10.546;2023-06-10T09:36:08;9.30;;;4.90;;
54452;SDS011;40363;52.270;10.546;2023-06-10T09:38:35;11.20;;;5.63;;
54452;SDS011;40363;52.270;10.546;2023-06-10T09:41:02;6.32;;;4.90;;
54452;SDS011;40363;52.270;10.546;2023-06-10T09:46:15;9.60;;;5.32;;
54452;SDS011;40363;52.270;10.546;2023-06-10T09:48:43;8.60;;;5.35;;
54452;SDS011;40363;52.270;10.546;2023-06-10T09:51:12;8.45;;;5.43;;
54452;SDS011;40363;52.270;10.546;2023-06-10T09:53:39;8.35;;;4.88;;
54452;SDS011;40363;52.270;10.546;2023-06-10T09:56:06;9.43;;;5.43;;
54452;SDS011;40363;52.270;10.546;2023-06-10T09:58:36;11.43;;;5.95;;
54452;SDS011;40363;52.270;10.546;2023-06-10T10:01:06;7.70;;;5.45;;
54452;SDS011;40363;52.270;10.546;2023-06-10T10:03:32;7.55;;;5.20;;
54452;SDS011;40363;52.270;10.546;2023-06-10T10:05:59;8.10;;;5.50;;
54452;SDS011;40363;52.270;10.546;2023-06-10T10:08:28;11.77;;;5.78;;
54452;SDS011;40363;52.270;10.546;2023-06-10T10:10:56;8.57;;;6.35;;
54452;SDS011;40363;52.270;10.546;2023-06-10T10:13:24;11.82;;;5.78;;
54452;SDS011;40363;52.270;10.546;2023-06-10T10:15:52;12.05;;;5.80;;
54452;SDS011;40363;52.270;10.546;2023-06-10T10:18:20;10.48;;;5.50;;
54452;SDS011;40363;52.270;10.546;2023-06-10T10:20:53;7.10;;;5.68;;
54452;SDS011;40363;52.270;10.546;2023-06-10T10:23:21;7.95;;;6.35;;
54452;SDS011;40363;52.270;10.546;2023-06-10T10:25:54;8.40;;;5.53;;
54452;SDS011;40363;52.270;10.546;2023-06-10T10:28:21;10.27;;;5.30;;
54452;SDS011;40363;52.270;10.546;2023-06-10T10:30:52;6.85;;;5.63;;
54452;SDS011;40363;52.270;10.546;2023-06-10T10:33:27;8.80;;;5.13;;
54452;SDS011;40363;52.270;10.546;2023-06-10T10:35:59;9.90;;;6.00;;
54452;SDS011;40363;52.270;10.546;2023-06-10T10:38:27;8.93;;;6.15;;
54452;SDS011;40363;52.270;10.546;2023-06-10T10:40:55;9.05;;;5.13;;
54452;SDS011;40363;52.270;10.546;2023-06-10T10:43:24;9.43;;;6.10;;
54452;SDS011;40363;52.270;10.546;2023-06-10T10:45:57;11.55;;;5.72;;
54452;SDS011;40363;52.270;10.546;2023-06-10T10:48:24;9.30;;;5.38;;
54452;SDS011;40363;52.270;10.546;2023-06-10T10:50:56;10.63;;;5.72;;
54452;SDS011;40363;52.270;10.546;2023-06-10T10:53:23;7.95;;;4.70;;
54452;SDS011;40363;52.270;10.546;2023-06-10T10:55:59;10.55;;;5.85;;
54452;SDS011;40363;52.270;10.546;2023-06-10T10:58:26;9.77;;;5.32;;
54452;SDS011;40363;52.270;10.546;2023-06-10T11:00:52;8.73;;;4.72;;
54452;SDS011;40363;52.270;10.546;2023-06-10T11:03:19;8.68;;;4.72;;
54452;SDS011;40363;52.270;10.546;2023-06-10T11:05:46;6.97;;;5.55;;
54452;SDS011;40363;52.270;10.546;2023-06-10T11:08:14;9.18;;;5.53;;
54452;SDS011;40363;52.270;10.546;2023-06-10T11:10:42;9.32;;;5.18;;
54452;SDS011;40363;52.270;10.546;2023-06-10T11:13:20;7.93;;;5.15;;
54452;SDS011;40363;52.270;10.546;2023-06-10T11:15:49;11.25;;;5.70;;
54452;SDS011;40363;52.270;10.546;2023-06-10T11:18:20;9.50;;;5.30;;
54452;SDS011;40363;52.270;10.546;2023-06-10T11:20:52;7.55;;;5.65;;
54452;SDS011;40363;52.270;10.546;2023-06-10T11:26:18;9.55;;;5.60;;
54452;SDS011;40363;52.270;10.546;2023-06-10T11:29:09;8.77;;;5.18;;
54452;SDS011;40363;52.270;10.546;2023-06-10T11:31:40;11.63;;;6.38;;
54452;SDS011;40363;52.270;10.546;2023-06-10T11:34:12;7.32;;;5.35;;
54452;SDS011;40363;52.270;10.546;2023-06-10T11:36:40;7.55;;;5.25;;
54452;SDS011;40363;52.270;10.546;2023-06-10T11:39:10;7.90;;;5.05;;
54452;SDS011;40363;52.270;10.546;2023-06-10T11:41:38;8.07;;;6.07;;
54452;SDS011;40363;52.270;10.546;2023-06-10T11:44:07;7.47;;;6.18;;
54452;SDS011;40363;52.270;10.546;2023-06-10T11:46:36;7.45;;;5.60;;
54452;SDS011;40363;52.270;10.546;2023-06-10T11:49:04;8.07;;;5.53;;
54452;SDS011;40363;52.270;10.546;2023-06-10T11:51:32;8.70;;;5.38;;
54452;SDS011;40363;52.270;10.546;2023-06-10T11:54:02;8.13;;;5.43;;
54452;SDS011;40363;52.270;10.546;2023-06-10T11:56:30;11.68;;;6.07;;
54452;SDS011;40363;52.270;10.546;2023-06-10T11:58:58;9.75;;;5.55;;
54452;SDS011;40363;52.270;10.546;2023-06-10T12:01:31;7.03;;;5.32;;
54452;SDS011;40363;52.270;10.546;2023-06-10T12:03:59;8.80;;;5.70;;
54452;SDS011;40363;52.270;10.546;2023-06-10T12:06:26;9.93;;;6.13;;
54452;SDS011;40363;52.270;10.546;2023-06-10T12:08:53;8.95;;;6.45;;
54452;SDS011;40363;52.270;10.546;2023-06-10T12:11:21;7.78;;;6.35;;
54452;SDS011;40363;52.270;10.546;2023-06-10T12:13:48;13.60;;;7.20;;
54452;SDS011;40363;52.270;10.546;2023-06-10T12:16:16;9.40;;;6.43;;
54452;SDS011;40363;52.270;10.546;2023-06-10T12:18:46;10.52;;;6.25;;
54452;SDS011;40363;52.270;10.546;2023-06-10T12:21:20;7.32;;;5.55;;
54452;SDS011;40363;52.270;10.546;2023-06-10T12:24:00;11.80;;;6.32;;
54452;SDS011;40363;52.270;10.546;2023-06-10T12:26:37;8.88;;;6.38;;
54452;SDS011;40363;52.270;10.546;2023-06-10T12:29:19;8.05;;;5.97;;
54452;SDS011;40363;52.270;10.546;2023-06-10T12:31:56;6.03;;;5.28;;
54452;SDS011;40363;52.270;10.546;2023-06-10T12:34:29;10.38;;;5.95;;
54452;SDS011;40363;52.270;10.546;2023-06-10T12:36:56;7.28;;;6.22;;
54452;SDS011;40363;52.270;10.546;2023-06-10T12:39:23;7.35;;;5.78;;
54452;SDS011;40363;52.270;10.546;2023-06-10T12:41:50;7.85;;;6.20;;
54452;SDS011;40363;52.270;10.546;2023-06-10T12:44:17;11.88;;;5.88;;
54452;SDS011;40363;52.270;10.546;2023-06-10T12:46:53;8.43;;;5.57;;
54452;SDS011;40363;52.270;10.546;2023-06-10T12:49:20;10.80;;;5.97;;
54452;SDS011;40363;52.270;10.546;2023-06-10T12:51:49;6.88;;;6.18;;
54452;SDS011;40363;52.270;10.546;2023-06-10T12:54:15;8.85;;;6.28;;
54452;SDS011;40363;52.270;10.546;2023-06-10T12:56:42;6.85;;;5.90;;
54452;SDS011;40363;52.270;10.546;2023-06-10T12:59:14;7.88;;;5.68;;
54452;SDS011;40363;52.270;10.546;2023-06-10T13:01:44;7.18;;;5.60;;
54452;SDS011;40363;52.270;10.546;2023-06-10T13:04:10;9.95;;;5.85;;
54452;SDS011;40363;52.270;10.546;2023-06-10T13:06:37;6.07;;;5.25;;
54452;SDS011;40363;52.270;10.546;2023-06-10T13:09:08;8.20;;;5.70;;
54452;SDS011;40363;52.270;10.546;2023-06-10T13:11:35;7.35;;;6.00;;
54452;SDS011;40363;52.270;10.546;2023-06-10T13:14:02;6.60;;;5.38;;
54452;SDS011;40363;52.270;10.546;2023-06-10T13:16:31;9.73;;;5.82;;
54452;SDS011;40363;52.270;10.546;2023-06-10T13:18:58;8.00;;;5.93;;
54452;SDS011;40363;52.270;10.546;2023-06-10T13:21:25;10.15;;;5.78;;
54452;SDS011;40363;52.270;10.546;2023-06-10T13:23:52;10.45;;;6.00;;
54452;SDS011;40363;52.270;10.546;2023-06-10T13:26:20;7.32;;;5.60;;
54452;SDS011;40363;52.270;10.546;2023-06-10T13:28:46;8.60;;;5.50;;
54452;SDS011;40363;52.270;10.546;2023-06-10T13:31:13;6.13;;;4.93;;
54452;SDS011;40363;52.270;10.546;2023-06-10T13:33:40;6.72;;;5.32;;
54452;SDS011;40363;52.270;10.546;2023-06-10T13:36:08;10.50;;;6.30;;
54452;SDS011;40363;52.270;10.546;2023-06-10T13:38:35;8.85;;;5.68;;
54452;SDS011;40363;52.270;10.546;2023-06-10T13:41:01;11.52;;;5.47;;
54452;SDS011;40363;52.270;10.546;2023-06-10T13:43:29;7.25;;;5.95;;
54452;SDS011;40363;52.270;10.546;2023-06-10T13:45:56;8.93;;;5.88;;
54452;SDS011;40363;52.270;10.546;2023-06-10T13:48:22;8.27;;;6.47;;
54452;SDS011;40363;52.270;10.546;2023-06-10T13:50:49;9.25;;;5.55;;
54452;SDS011;40363;52.270;10.546;2023-06-10T13:53:15;10.20;;;5.53;;
54452;SDS011;40363;52.270;10.546;2023-06-10T13:55:42;10.15;;;5.70;;
54452;SDS011;40363;52.270;10.546;2023-06-10T13:58:09;8.90;;;6.40;;
54452;SDS011;40363;52.270;10.546;2023-06-10T14:00:37;11.63;;;6.63;;
54452;SDS011;40363;52.270;10.546;2023-06-10T14:03:03;8.18;;;6.35;;
54452;SDS011;40363;52.270;10.546;2023-06-10T14:05:30;8.32;;;6.32;;
54452;SDS011;40363;52.270;10.546;2023-06-10T14:07:56;7.07;;;6.32;;
54452;SDS011;40363;52.270;10.546;2023-06-10T14:10:23;8.85;;;6.07;;
54452;SDS011;40363;52.270;10.546;2023-06-10T14:12:50;7.05;;;6.00;;
54452;SDS011;40363;52.270;10.546;2023-06-10T14:15:16;8.25;;;5.53;;
54452;SDS011;40363;52.270;10.546;2023-06-10T14:17:44;8.32;;;6.20;;
54452;SDS011;40363;52.270;10.546;2023-06-10T14:20:11;6.88;;;5.47;;
54452;SDS011;40363;52.270;10.546;2023-06-10T14:22:38;9.55;;;5.75;;
54452;SDS011;40363;52.270;10.546;2023-06-10T14:25:05;6.93;;;5.97;;
54452;SDS011;40363;52.270;10.546;2023-06-10T14:27:32;6.10;;;5.10;;
54452;SDS011;40363;52.270;10.546;2023-06-10T14:29:59;8.60;;;6.30;;
54452;SDS011;40363;52.270;10.546;2023-06-10T14:32:26;8.55;;;5.70;;
54452;SDS011;40363;52.270;10.546;2023-06-10T14:34:53;8.02;;;6.00;;
54452;SDS011;40363;52.270;10.546;2023-06-10T14:37:20;13.48;;;6.18;;
54452;SDS011;40363;52.270;10.546;2023-06-10T14:39:47;7.80;;;5.60;;